Time;durP1;ratioP1;P1;durP2;ratioP2;P2;SDS_P1;SDS_P2;PMS_P1;PMS_P2;Temp;Humidity;BMP_temperature;BMP_pressure;BME280_temperature;BME280_humidity;BME280_pressure;Samples;Min_cycle;Max_cycle;Signal;HPM_P1;HPM_P2
2023/04/09 00:00:01;;;;;;;87.40;44.90;;;;;;;;;;107567;1251;25326;-79
2023/04/09 00:02:28;;;;;;;80.60;43.20;;;;;;;;;;107677;1251;22543;-79
2023/04/09 00:04:54;;;;;;;86.20;42.40;;;;;;;;;;107732;1251;23070;-79
2023/04/09 00:07:21;;;;;;;92.70;47.90;;;;;;;;;;107747;1254;22703;-80
2023/04/09 00:09:47;;;;;;;105.80;51.90;;;;;;;;;;107712;1253;24328;-79
2023/04/09 00:12:14;;;;;;;102.70;55.60;;;;;;;;;;107622;1254;25303;-80
2023/04/09 00:14:40;;;;;;;89.40;45.80;;;;;;;;;;107800;1253;25473;-78
2023/04/09 00:17:07;;;;;;;91.30;45.40;;;;;;;;;;107692;1253;23537;-80
2023/04/09 00:19:33;;;;;;;90.70;42.80;;;;;;;;;;107720;1250;22541;-79
2023/04/09 00:21:59;;;;;;;82.30;41.20;;;;;;;;;;107681;1253;22624;-80
2023/04/09 00:24:26;;;;;;;81.70;42.10;;;;;;;;;;107720;1250;24342;-80
2023/04/09 00:26:52;;;;;;;91.80;48.90;;;;;;;;;;107709;1251;26353;-78
2023/04/09 00:29:18;;;;;;;81.70;41.50;;;;;;;;;;107629;1253;25386;-79
2023/04/09 00:31:45;;;;;;;88.70;42.30;;;;;;;;;;107539;1251;22698;-80
2023/04/09 00:34:11;;;;;;;83.00;39.60;;;;;;;;;;107565;1253;22527;-80
2023/04/09 00:36:37;;;;;;;78.70;41.50;;;;;;;;;;107562;1251;23016;-78
2023/04/09 00:39:04;;;;;;;85.60;43.10;;;;;;;;;;107619;1251;22574;-78
2023/04/09 00:41:30;;;;;;;80.60;42.80;;;;;;;;;;107521;1251;22615;-80
2023/04/09 00:43:56;;;;;;;77.30;40.20;;;;;;;;;;107894;1250;22834;-79
2023/04/09 00:46:23;;;;;;;81.60;43.20;;;;;;;;;;110902;1249;22912;-80
2023/04/09 00:48:49;;;;;;;91.90;44.70;;;;;;;;;;107553;1251;22996;-80
2023/04/09 00:51:16;;;;;;;82.60;42.90;;;;;;;;;;107536;1252;22539;-80
2023/04/09 00:53:43;;;;;;;88.70;47.40;;;;;;;;;;107600;1253;22560;-78
2023/04/09 00:56:10;;;;;;;88.20;48.10;;;;;;;;;;107530;1253;22531;-80
2023/04/09 00:58:36;;;;;;;91.00;47.50;;;;;;;;;;110753;1250;23037;-79
2023/04/09 01:01:03;;;;;;;83.10;42.80;;;;;;;;;;110831;1249;22379;-80
2023/04/09 01:03:29;;;;;;;86.00;47.50;;;;;;;;;;110910;1251;22465;-80
2023/04/09 01:06:08;;;;;;;90.20;47.90;;;;;;;;;;110856;1250;22316;-78
2023/04/09 01:08:34;;;;;;;89.30;46.70;;;;;;;;;;110863;1251;23324;-78
2023/04/09 01:11:05;;;;;;;84.80;44.90;;;;;;;;;;108184;1254;22640;-76
2023/04/09 01:13:41;;;;;;;85.00;45.10;;;;;;;;;;107575;1251;23320;-80
2023/04/09 01:16:07;;;;;;;94.10;45.80;;;;;;;;;;107566;1249;22527;-80
2023/04/09 01:18:44;;;;;;;93.30;46.40;;;;;;;;;;107578;1250;22696;-79
2023/04/09 01:21:11;;;;;;;76.60;39.00;;;;;;;;;;107570;1252;25370;-80
2023/04/09 01:23:57;;;;;;;76.00;40.20;;;;;;;;;;107556;1251;22526;-80
2023/04/09 01:26:36;;;;;;;75.10;40.60;;;;;;;;;;107572;1251;22653;-80
2023/04/09 01:29:03;;;;;;;78.10;38.70;;;;;;;;;;107556;1251;24433;-80
2023/04/09 01:31:29;;;;;;;77.50;40.40;;;;;;;;;;107539;1253;25264;-79
2023/04/09 01:33:56;;;;;;;79.60;39.90;;;;;;;;;;107676;1251;22638;-78
2023/04/09 01:36:23;;;;;;;88.70;45.20;;;;;;;;;;107519;1253;24219;-79
2023/04/09 01:38:50;;;;;;;87.70;46.30;;;;;;;;;;107580;1251;22543;-80
2023/04/09 01:41:18;;;;;;;91.30;46.40;;;;;;;;;;107552;1251;25265;-78
2023/04/09 01:43:44;;;;;;;92.10;50.30;;;;;;;;;;107569;1251;22522;-78
2023/04/09 01:46:11;;;;;;;82.60;45.10;;;;;;;;;;107561;1251;24218;-80
2023/04/09 01:48:37;;;;;;;76.70;40.30;;;;;;;;;;107542;1250;24095;-79
2023/04/09 01:51:03;;;;;;;79.90;40.70;;;;;;;;;;107590;1250;22544;-78
2023/04/09 01:53:30;;;;;;;80.90;41.90;;;;;;;;;;107565;1251;22580;-79
2023/04/09 01:56:00;;;;;;;87.40;43.20;;;;;;;;;;107554;1250;22548;-80
2023/04/09 01:58:26;;;;;;;86.40;44.10;;;;;;;;;;107406;1251;157638;-79
2023/04/09 02:00:58;;;;;;;86.80;42.40;;;;;;;;;;107560;1251;24383;-80
2023/04/09 02:03:32;;;;;;;92.80;45.50;;;;;;;;;;107686;1251;22580;-80
2023/04/09 02:06:01;;;;;;;85.40;46.10;;;;;;;;;;107687;1251;22515;-79
2023/04/09 02:08:27;;;;;;;93.00;49.30;;;;;;;;;;107658;1251;24269;-80
2023/04/09 02:10:55;;;;;;;96.80;49.60;;;;;;;;;;107702;1250;25317;-80
2023/04/09 02:13:21;;;;;;;83.90;43.10;;;;;;;;;;107706;1251;24263;-80
2023/04/09 02:15:48;;;;;;;96.90;48.20;;;;;;;;;;107655;1251;24416;-79
2023/04/09 02:18:41;;;;;;;87.50;49.40;;;;;;;;;;107648;1249;22566;-79
2023/04/09 02:21:07;;;;;;;95.90;46.50;;;;;;;;;;107692;1253;25318;-80
2023/04/09 02:23:33;;;;;;;85.70;45.20;;;;;;;;;;107663;1252;22524;-78
2023/04/09 02:26:00;;;;;;;87.10;45.50;;;;;;;;;;107670;1251;22519;-80
2023/04/09 02:28:26;;;;;;;92.80;50.60;;;;;;;;;;108260;1249;22411;-80
2023/04/09 02:30:52;;;;;;;79.50;43.30;;;;;;;;;;110866;1251;23047;-79
2023/04/09 02:33:19;;;;;;;79.80;42.80;;;;;;;;;;110912;1249;22344;-78
2023/04/09 02:35:45;;;;;;;82.90;45.50;;;;;;;;;;110852;1251;22162;-77
2023/04/09 02:38:14;;;;;;;83.50;43.50;;;;;;;;;;109322;1250;23152;-76
2023/04/09 02:40:41;;;;;;;79.20;41.10;;;;;;;;;;110881;1249;22454;-80
2023/04/09 02:43:07;;;;;;;82.00;40.40;;;;;;;;;;110794;1251;23315;-79
2023/04/09 02:45:34;;;;;;;80.50;40.70;;;;;;;;;;108810;1251;25287;-80
2023/04/09 02:48:00;;;;;;;80.40;40.80;;;;;;;;;;108506;1249;23049;-77
2023/04/09 02:50:27;;;;;;;80.50;41.60;;;;;;;;;;110861;1250;22375;-78
2023/04/09 02:52:53;;;;;;;82.20;43.00;;;;;;;;;;110886;1249;23224;-77
2023/04/09 02:55:20;;;;;;;78.40;39.70;;;;;;;;;;110896;1250;22488;-78
2023/04/09 02:57:46;;;;;;;72.70;38.50;;;;;;;;;;110663;1250;22443;-77
2023/04/09 03:00:13;;;;;;;77.20;43.40;;;;;;;;;;110765;1250;22990;-79
2023/04/09 03:02:39;;;;;;;76.00;39.70;;;;;;;;;;110875;1250;22104;-77
2023/04/09 03:05:06;;;;;;;77.50;41.80;;;;;;;;;;110883;1251;22273;-77
2023/04/09 03:07:32;;;;;;;80.60;43.60;;;;;;;;;;110874;1250;22192;-79
2023/04/09 03:09:59;;;;;;;83.90;48.00;;;;;;;;;;110885;1251;22297;-79
2023/04/09 03:12:26;;;;;;;81.20;44.90;;;;;;;;;;110915;1250;22412;-79
2023/04/09 03:14:53;;;;;;;90.90;52.70;;;;;;;;;;110881;1250;22329;-77
2023/04/09 03:17:19;;;;;;;85.20;42.80;;;;;;;;;;110840;1249;22191;-79
2023/04/09 03:19:46;;;;;;;73.80;39.20;;;;;;;;;;110893;1250;22310;-78
2023/04/09 03:22:12;;;;;;;82.90;44.80;;;;;;;;;;110875;1249;22171;-77
2023/04/09 03:24:38;;;;;;;86.00;45.10;;;;;;;;;;110821;1250;22340;-77
2023/04/09 03:27:05;;;;;;;80.90;43.00;;;;;;;;;;107850;1250;25845;-78
2023/04/09 03:29:31;;;;;;;84.10;42.40;;;;;;;;;;107572;1253;22530;-76
2023/04/09 03:31:57;;;;;;;81.10;42.80;;;;;;;;;;107554;1251;25303;-78
2023/04/09 03:34:24;;;;;;;88.50;43.00;;;;;;;;;;107566;1250;22518;-76
2023/04/09 03:36:50;;;;;;;74.00;40.50;;;;;;;;;;107567;1251;22537;-76
2023/04/09 03:39:16;;;;;;;69.90;36.40;;;;;;;;;;107580;1250;24217;-79
2023/04/09 03:41:43;;;;;;;82.30;39.80;;;;;;;;;;107550;1249;22549;-76
2023/04/09 03:44:09;;;;;;;81.40;42.80;;;;;;;;;;107541;1250;22518;-76
2023/04/09 03:46:35;;;;;;;73.50;40.10;;;;;;;;;;107571;1251;22523;-77
2023/04/09 03:49:02;;;;;;;65.70;35.90;;;;;;;;;;107590;1251;22552;-78
2023/04/09 03:51:28;;;;;;;80.10;41.10;;;;;;;;;;107535;1249;22562;-76
2023/04/09 03:53:55;;;;;;;78.40;37.60;;;;;;;;;;107595;1252;22532;-76
2023/04/09 03:56:21;;;;;;;81.20;42.30;;;;;;;;;;107532;1250;23250;-77
2023/04/09 03:58:48;;;;;;;73.50;37.70;;;;;;;;;;109085;1250;23030;-77
2023/04/09 04:01:14;;;;;;;79.80;41.60;;;;;;;;;;110912;1249;22496;-78
2023/04/09 04:03:41;;;;;;;87.40;44.40;;;;;;;;;;111001;1249;22827;-77
2023/04/09 04:06:07;;;;;;;76.60;39.10;;;;;;;;;;110974;1250;22169;-77
2023/04/09 04:08:33;;;;;;;75.60;39.40;;;;;;;;;;107918;1251;22526;-78
2023/04/09 04:11:03;;;;;;;72.00;38.50;;;;;;;;;;107773;1250;22660;-81
2023/04/09 04:13:30;;;;;;;84.40;41.70;;;;;;;;;;111065;1249;23191;-79
2023/04/09 04:15:56;;;;;;;87.00;44.40;;;;;;;;;;110982;1249;22244;-80
2023/04/09 04:18:22;;;;;;;122.30;62.60;;;;;;;;;;110941;1250;22556;-80
2023/04/09 04:20:49;;;;;;;122.90;62.30;;;;;;;;;;111003;1250;22320;-78
2023/04/09 04:23:15;;;;;;;233.10;96.30;;;;;;;;;;110781;1250;22337;-80
2023/04/09 04:25:41;;;;;;;497.60;204.20;;;;;;;;;;110619;1249;22529;-80
2023/04/09 04:28:08;;;;;;;552.20;232.50;;;;;;;;;;107675;1250;24271;-78
2023/04/09 04:30:34;;;;;;;131.90;66.90;;;;;;;;;;107568;1249;22524;-80
2023/04/09 04:33:01;;;;;;;89.70;47.20;;;;;;;;;;108575;1249;23007;-80
2023/04/09 04:35:27;;;;;;;103.70;50.60;;;;;;;;;;110877;1249;22205;-80
2023/04/09 04:37:54;;;;;;;118.10;56.30;;;;;;;;;;108278;1249;22520;-80
2023/04/09 04:40:20;;;;;;;244.40;114.00;;;;;;;;;;107550;1250;23548;-80
2023/04/09 04:42:46;;;;;;;161.40;87.00;;;;;;;;;;107576;1250;23709;-80
2023/04/09 04:45:13;;;;;;;108.60;60.60;;;;;;;;;;107559;1250;25292;-80
2023/04/09 04:47:39;;;;;;;85.20;44.00;;;;;;;;;;107635;1250;22533;-78
2023/04/09 04:50:06;;;;;;;82.50;45.00;;;;;;;;;;107573;1253;22531;-78
2023/04/09 04:52:32;;;;;;;77.20;44.10;;;;;;;;;;107536;1250;22630;-80
2023/04/09 04:54:59;;;;;;;76.60;40.50;;;;;;;;;;107571;1250;22636;-79
2023/04/09 04:57:25;;;;;;;71.60;39.10;;;;;;;;;;107542;1251;22955;-80
2023/04/09 04:59:51;;;;;;;71.40;37.40;;;;;;;;;;107561;1250;22567;-80
2023/04/09 05:02:18;;;;;;;73.70;38.90;;;;;;;;;;107561;1250;25350;-78
2023/04/09 05:04:44;;;;;;;73.10;40.90;;;;;;;;;;107580;1251;24358;-80
2023/04/09 05:07:10;;;;;;;72.60;39.20;;;;;;;;;;107562;1251;25342;-78
2023/04/09 05:09:36;;;;;;;76.60;39.20;;;;;;;;;;107540;1251;22973;-78
2023/04/09 05:12:03;;;;;;;85.80;47.60;;;;;;;;;;107552;1250;25336;-78
2023/04/09 05:14:29;;;;;;;78.30;42.00;;;;;;;;;;107552;1251;25369;-78
2023/04/09 05:16:55;;;;;;;70.80;40.90;;;;;;;;;;107474;1251;22631;-80
2023/04/09 05:19:22;;;;;;;79.40;44.80;;;;;;;;;;107548;1250;24218;-78
2023/04/09 05:21:48;;;;;;;76.70;41.30;;;;;;;;;;107557;1252;26172;-79
2023/04/09 05:24:14;;;;;;;78.40;42.50;;;;;;;;;;107523;1249;24225;-80
2023/04/09 05:26:41;;;;;;;76.50;41.60;;;;;;;;;;107521;1251;22523;-80
2023/04/09 05:29:07;;;;;;;70.70;37.90;;;;;;;;;;107534;1250;23041;-79
2023/04/09 05:31:34;;;;;;;74.00;40.10;;;;;;;;;;107532;1250;22786;-80
2023/04/09 05:34:00;;;;;;;71.80;40.60;;;;;;;;;;107682;1250;22530;-80
2023/04/09 05:36:26;;;;;;;77.80;46.10;;;;;;;;;;107573;1249;25262;-79
2023/04/09 05:38:53;;;;;;;71.10;38.20;;;;;;;;;;107996;1249;22656;-79
2023/04/09 05:41:19;;;;;;;75.70;40.80;;;;;;;;;;107548;1250;23039;-80
2023/04/09 05:43:45;;;;;;;74.70;41.00;;;;;;;;;;107584;1252;22547;-78
2023/04/09 05:46:12;;;;;;;71.00;40.20;;;;;;;;;;107524;1250;22515;-80
2023/04/09 05:48:38;;;;;;;74.90;43.10;;;;;;;;;;107547;1249;23236;-78
2023/04/09 05:51:04;;;;;;;86.00;45.50;;;;;;;;;;107799;1249;23738;-80
2023/04/09 05:53:31;;;;;;;78.80;47.00;;;;;;;;;;107541;1250;22523;-80
2023/04/09 05:55:57;;;;;;;89.50;51.20;;;;;;;;;;107530;1250;22567;-78
2023/04/09 05:58:24;;;;;;;118.60;68.10;;;;;;;;;;107565;1251;22549;-80
2023/04/09 06:00:51;;;;;;;84.20;45.80;;;;;;;;;;107578;1250;22535;-78
2023/04/09 06:03:18;;;;;;;64.10;39.10;;;;;;;;;;107678;1249;23383;-79
2023/04/09 06:05:44;;;;;;;67.00;39.80;;;;;;;;;;107657;1250;25303;-78
2023/04/09 06:08:11;;;;;;;76.20;45.10;;;;;;;;;;107695;1251;24259;-78
2023/04/09 06:10:38;;;;;;;81.90;46.60;;;;;;;;;;107675;1250;22865;-80
2023/04/09 06:13:05;;;;;;;86.90;46.40;;;;;;;;;;107560;1254;25325;-78
2023/04/09 06:15:31;;;;;;;88.50;45.20;;;;;;;;;;107629;1251;22526;-80
2023/04/09 06:17:58;;;;;;;74.80;41.90;;;;;;;;;;107533;1252;22572;-80
2023/04/09 06:20:24;;;;;;;67.30;38.10;;;;;;;;;;107628;1251;22541;-78
2023/04/09 06:22:50;;;;;;;65.70;39.50;;;;;;;;;;107661;1250;26333;-80
2023/04/09 06:25:16;;;;;;;68.60;40.40;;;;;;;;;;107662;1249;23276;-78
2023/04/09 06:27:43;;;;;;;62.00;35.40;;;;;;;;;;107692;1251;25323;-80
2023/04/09 06:30:09;;;;;;;67.30;37.60;;;;;;;;;;107564;1250;25487;-79
2023/04/09 06:32:36;;;;;;;61.00;36.40;;;;;;;;;;107599;1250;25221;-78
2023/04/09 06:35:02;;;;;;;62.10;35.40;;;;;;;;;;107548;1250;22534;-78
2023/04/09 06:37:29;;;;;;;64.20;36.30;;;;;;;;;;107598;1249;22528;-79
2023/04/09 06:39:55;;;;;;;63.20;35.70;;;;;;;;;;107584;1250;22581;-79
2023/04/09 06:42:21;;;;;;;66.50;37.50;;;;;;;;;;107553;1254;22548;-80
2023/04/09 06:44:48;;;;;;;63.60;36.80;;;;;;;;;;107539;1252;22655;-79
2023/04/09 06:47:14;;;;;;;59.60;35.00;;;;;;;;;;107568;1250;25274;-79
2023/04/09 06:49:40;;;;;;;56.20;33.80;;;;;;;;;;107566;1250;22568;-78
2023/04/09 06:52:07;;;;;;;55.20;33.30;;;;;;;;;;107746;1249;24187;-78
2023/04/09 06:54:33;;;;;;;58.00;35.00;;;;;;;;;;107578;1250;22523;-77
2023/04/09 06:57:00;;;;;;;55.80;31.20;;;;;;;;;;107537;1250;24261;-80
2023/04/09 06:59:26;;;;;;;70.50;42.30;;;;;;;;;;107613;1250;22635;-79
2023/04/09 07:01:53;;;;;;;72.70;36.60;;;;;;;;;;107544;1250;24246;-78
2023/04/09 07:04:19;;;;;;;56.00;32.50;;;;;;;;;;107529;1250;22594;-80
2023/04/09 07:06:46;;;;;;;49.50;30.90;;;;;;;;;;107545;1249;22632;-80
2023/04/09 07:09:12;;;;;;;52.00;31.20;;;;;;;;;;107576;1249;22525;-79
2023/04/09 07:11:39;;;;;;;49.70;31.40;;;;;;;;;;107580;1249;25340;-78
2023/04/09 07:14:05;;;;;;;55.00;36.00;;;;;;;;;;107563;1250;25455;-78
2023/04/09 07:16:32;;;;;;;49.10;32.00;;;;;;;;;;107634;1250;22606;-78
2023/04/09 07:18:58;;;;;;;52.60;34.00;;;;;;;;;;107540;1250;22526;-78
2023/04/09 07:21:25;;;;;;;53.30;34.70;;;;;;;;;;107511;1252;22530;-80
2023/04/09 07:23:51;;;;;;;50.10;33.70;;;;;;;;;;107552;1251;22517;-78
2023/04/09 07:26:18;;;;;;;45.70;32.00;;;;;;;;;;107595;1250;24281;-78
2023/04/09 07:28:45;;;;;;;51.40;32.70;;;;;;;;;;107547;1250;25459;-80
2023/04/09 07:31:11;;;;;;;61.20;45.00;;;;;;;;;;107572;1250;25263;-78
2023/04/09 07:33:38;;;;;;;41.80;28.40;;;;;;;;;;107554;1250;23238;-79
2023/04/09 07:36:04;;;;;;;38.30;25.30;;;;;;;;;;107548;1252;22535;-80
2023/04/09 07:38:32;;;;;;;39.90;28.50;;;;;;;;;;107538;1250;22537;-82
2023/04/09 07:40:58;;;;;;;45.00;29.30;;;;;;;;;;107641;1250;22642;-81
2023/04/09 07:43:25;;;;;;;55.10;36.50;;;;;;;;;;107659;1250;22566;-80
2023/04/09 07:45:51;;;;;;;52.20;32.60;;;;;;;;;;107520;1252;25891;-78
2023/04/09 07:48:17;;;;;;;54.10;34.40;;;;;;;;;;107568;1249;25276;-80
2023/04/09 07:50:44;;;;;;;49.40;31.30;;;;;;;;;;107507;1250;24222;-81
2023/04/09 07:53:11;;;;;;;45.50;27.40;;;;;;;;;;107532;1250;22537;-80
2023/04/09 07:55:37;;;;;;;331.90;222.20;;;;;;;;;;107574;1249;22521;-79
2023/04/09 07:58:04;;;;;;;83.10;56.10;;;;;;;;;;108024;1250;22996;-80
2023/04/09 08:00:31;;;;;;;65.10;38.50;;;;;;;;;;108028;1250;25377;-80
2023/04/09 08:02:57;;;;;;;71.40;37.30;;;;;;;;;;108233;1250;24386;-80
2023/04/09 08:05:24;;;;;;;60.50;38.50;;;;;;;;;;107652;1250;22583;-79
2023/04/09 08:07:51;;;;;;;41.40;28.10;;;;;;;;;;107631;1253;22660;-80
2023/04/09 08:10:18;;;;;;;39.40;26.00;;;;;;;;;;107585;1251;24212;-80
2023/04/09 08:12:46;;;;;;;34.90;21.10;;;;;;;;;;108174;1249;24255;-79
2023/04/09 08:15:12;;;;;;;36.40;23.30;;;;;;;;;;107803;1250;22533;-78
2023/04/09 08:17:39;;;;;;;37.30;24.10;;;;;;;;;;107652;1251;25322;-79
2023/04/09 08:20:06;;;;;;;32.90;21.60;;;;;;;;;;107638;1249;22525;-80
2023/04/09 08:22:33;;;;;;;43.80;25.20;;;;;;;;;;107849;1253;24225;-79
2023/04/09 08:24:59;;;;;;;32.80;21.90;;;;;;;;;;108256;1249;22525;-78
2023/04/09 08:27:26;;;;;;;34.90;22.70;;;;;;;;;;107681;1250;22532;-80
2023/04/09 08:29:52;;;;;;;39.70;25.30;;;;;;;;;;107529;1249;25340;-78
2023/04/09 08:32:19;;;;;;;35.30;24.10;;;;;;;;;;107567;1249;22531;-80
2023/04/09 08:34:45;;;;;;;36.30;23.70;;;;;;;;;;107526;1250;22521;-79
2023/04/09 08:37:12;;;;;;;32.80;21.80;;;;;;;;;;107593;1249;22545;-78
2023/04/09 08:39:38;;;;;;;35.60;23.90;;;;;;;;;;107557;1252;23370;-78
2023/04/09 08:42:05;;;;;;;40.10;29.70;;;;;;;;;;107548;1250;22520;-80
2023/04/09 08:44:31;;;;;;;37.40;29.00;;;;;;;;;;107636;1250;22551;-78
2023/04/09 08:46:58;;;;;;;43.20;28.30;;;;;;;;;;107548;1249;22544;-78
2023/04/09 08:49:24;;;;;;;41.00;33.20;;;;;;;;;;107526;1248;24253;-79
2023/04/09 08:51:51;;;;;;;42.70;32.60;;;;;;;;;;107499;1250;22597;-80
2023/04/09 08:54:20;;;;;;;35.10;24.80;;;;;;;;;;107548;1253;22515;-79
2023/04/09 08:56:46;;;;;;;53.80;44.60;;;;;;;;;;107505;1250;22562;-78
2023/04/09 08:59:17;;;;;;;44.70;36.60;;;;;;;;;;107574;1250;23927;-78
2023/04/09 09:01:46;;;;;;;38.80;28.40;;;;;;;;;;107600;1253;25217;-79
2023/04/09 09:04:13;;;;;;;101.40;68.50;;;;;;;;;;107572;1249;24289;-78
2023/04/09 09:06:39;;;;;;;78.50;51.40;;;;;;;;;;107522;1250;22537;-78
2023/04/09 09:09:07;;;;;;;38.80;27.30;;;;;;;;;;107540;1250;25207;-78
2023/04/09 09:11:43;;;;;;;33.00;22.90;;;;;;;;;;107588;1250;24365;-80
2023/04/09 09:14:09;;;;;;;37.60;30.00;;;;;;;;;;107536;1250;22527;-78
2023/04/09 09:16:42;;;;;;;29.50;22.30;;;;;;;;;;107537;1249;25387;-78
2023/04/09 09:19:08;;;;;;;34.60;23.00;;;;;;;;;;107505;1250;25494;-80
2023/04/09 09:21:35;;;;;;;31.00;23.40;;;;;;;;;;107573;1253;22534;-76
2023/04/09 09:24:02;;;;;;;29.20;24.20;;;;;;;;;;107590;1249;22531;-78
2023/04/09 09:26:28;;;;;;;24.00;20.00;;;;;;;;;;108861;1250;22769;-78
2023/04/09 09:28:57;;;;;;;19.60;16.00;;;;;;;;;;107554;1250;25349;-80
2023/04/09 09:31:24;;;;;;;;;;;;;;;;;;107550;1253;22528;-79
2023/04/09 09:33:50;;;;;;;23.50;19.00;;;;;;;;;;107516;1249;22611;-78
2023/04/09 09:36:37;;;;;;;27.00;22.60;;;;;;;;;;107564;1249;23797;-78
2023/04/09 09:39:08;;;;;;;50.90;39.60;;;;;;;;;;107547;1250;26608;-77
2023/04/09 09:41:35;;;;;;;43.10;33.10;;;;;;;;;;107497;1249;22672;-78
2023/04/09 09:44:03;;;;;;;40.80;28.10;;;;;;;;;;107523;1250;25299;-79
2023/04/09 09:46:30;;;;;;;33.40;23.10;;;;;;;;;;107531;1250;22532;-78
2023/04/09 09:48:56;;;;;;;38.40;27.10;;;;;;;;;;107582;1249;25231;-77
2023/04/09 09:51:25;;;;;;;27.90;20.70;;;;;;;;;;107512;1250;22552;-78
2023/04/09 09:53:51;;;;;;;32.70;24.00;;;;;;;;;;107762;1250;22662;-81
2023/04/09 09:56:18;;;;;;;25.00;17.50;;;;;;;;;;107618;1250;23130;-79
2023/04/09 09:58:49;;;;;;;26.30;19.00;;;;;;;;;;108044;1249;22528;-81
2023/04/09 10:01:15;;;;;;;28.80;20.00;;;;;;;;;;108071;1251;22651;-79
2023/04/09 10:03:42;;;;;;;27.70;19.20;;;;;;;;;;108216;1250;24339;-79
2023/04/09 10:06:10;;;;;;;26.10;17.80;;;;;;;;;;108128;1250;25281;-79
2023/04/09 10:08:37;;;;;;;32.50;19.20;;;;;;;;;;108168;1252;22530;-80
2023/04/09 10:11:04;;;;;;;47.80;25.00;;;;;;;;;;108213;1249;25284;-79
2023/04/09 10:13:36;;;;;;;53.80;28.60;;;;;;;;;;109029;1251;23029;-79
2023/04/09 10:16:03;;;;;;;33.30;22.60;;;;;;;;;;108156;1255;26581;-79
2023/04/09 10:18:32;;;;;;;31.60;21.20;;;;;;;;;;107672;1252;22544;-81
2023/04/09 10:21:00;;;;;;;32.40;20.70;;;;;;;;;;107669;1251;22532;-79
2023/04/09 10:23:37;;;;;;;31.60;20.90;;;;;;;;;;108131;1250;22661;-77
2023/04/09 10:26:04;;;;;;;28.70;18.90;;;;;;;;;;107631;1250;23278;-80
2023/04/09 10:28:31;;;;;;;31.60;20.20;;;;;;;;;;110947;1249;22220;-77
2023/04/09 10:30:57;;;;;;;29.80;19.70;;;;;;;;;;108142;1251;22654;-79
2023/04/09 10:33:27;;;;;;;29.00;20.50;;;;;;;;;;108145;1250;24079;-81
2023/04/09 10:35:54;;;;;;;28.90;18.70;;;;;;;;;;108103;1250;22694;-81
2023/04/09 10:38:37;;;;;;;27.60;18.10;;;;;;;;;;108299;1250;22542;-81
2023/04/09 10:41:12;;;;;;;26.70;17.70;;;;;;;;;;108123;1249;22594;-81
2023/04/09 10:43:39;;;;;;;30.10;21.20;;;;;;;;;;108129;1249;23927;-81
2023/04/09 10:46:06;;;;;;;31.30;20.90;;;;;;;;;;108096;1249;22601;-79
2023/04/09 10:48:33;;;;;;;28.30;19.30;;;;;;;;;;108111;1250;25999;-81
2023/04/09 10:51:01;;;;;;;28.30;18.40;;;;;;;;;;108122;1250;25339;-79
2023/04/09 10:53:27;;;;;;;31.90;20.30;;;;;;;;;;108146;1249;25326;-81
2023/04/09 10:55:55;;;;;;;28.90;20.20;;;;;;;;;;108161;1250;22654;-81
2023/04/09 10:58:21;;;;;;;35.30;20.30;;;;;;;;;;108065;1249;22537;-79
2023/04/09 11:00:48;;;;;;;29.70;19.60;;;;;;;;;;108351;1249;22603;-76
2023/04/09 11:03:25;;;;;;;30.70;18.70;;;;;;;;;;107667;1252;22514;-80
2023/04/09 11:05:59;;;;;;;28.50;20.20;;;;;;;;;;107695;1252;25272;-80
2023/04/09 11:08:32;;;;;;;29.70;19.70;;;;;;;;;;107591;1249;23061;-81
2023/04/09 11:11:00;;;;;;;53.90;32.70;;;;;;;;;;107624;1248;22520;-80
2023/04/09 11:13:26;;;;;;;52.10;32.00;;;;;;;;;;107677;1248;23183;-80
2023/04/09 11:15:53;;;;;;;45.60;28.10;;;;;;;;;;108173;1248;24194;-81
2023/04/09 11:18:26;;;;;;;34.10;22.60;;;;;;;;;;108231;1250;22550;-82
2023/04/09 11:20:56;;;;;;;40.10;26.50;;;;;;;;;;108190;1249;25301;-79
2023/04/09 11:23:22;;;;;;;42.60;27.90;;;;;;;;;;108171;1248;23929;-81
2023/04/09 11:25:49;;;;;;;97.00;49.30;;;;;;;;;;108214;1248;24276;-79
2023/04/09 11:28:16;;;;;;;79.40;44.70;;;;;;;;;;108195;1249;22573;-81
2023/04/09 11:30:42;;;;;;;61.50;39.80;;;;;;;;;;108214;1252;25198;-81
2023/04/09 11:33:09;;;;;;;35.20;24.40;;;;;;;;;;108136;1250;22578;-81
2023/04/09 11:35:36;;;;;;;37.70;23.20;;;;;;;;;;108157;1248;22639;-79
2023/04/09 11:38:08;;;;;;;50.20;28.60;;;;;;;;;;108109;1249;23783;-79
2023/04/09 11:40:35;;;;;;;47.30;27.50;;;;;;;;;;108094;1250;22528;-81
2023/04/09 11:43:02;;;;;;;40.60;25.00;;;;;;;;;;108377;1248;22563;-79
2023/04/09 11:45:29;;;;;;;42.80;25.50;;;;;;;;;;108195;1250;24221;-79
2023/04/09 11:47:55;;;;;;;37.50;24.50;;;;;;;;;;108212;1248;26457;-80
2023/04/09 11:50:21;;;;;;;43.90;28.20;;;;;;;;;;108164;1248;23253;-79
2023/04/09 11:52:48;;;;;;;56.50;36.30;;;;;;;;;;108243;1249;22528;-81
2023/04/09 11:55:28;;;;;;;41.70;30.20;;;;;;;;;;108185;1250;26016;-79
2023/04/09 11:57:59;;;;;;;47.10;31.90;;;;;;;;;;107656;1248;22768;-80
2023/04/09 12:00:26;;;;;;;58.20;34.20;;;;;;;;;;108172;1250;22594;-81
2023/04/09 12:03:00;;;;;;;53.40;33.60;;;;;;;;;;108305;1247;23205;-79
2023/04/09 12:05:27;;;;;;;67.70;42.90;;;;;;;;;;108326;1247;23116;-79
2023/04/09 12:08:00;;;;;;;42.30;28.90;;;;;;;;;;108339;1253;26500;-79
2023/04/09 12:10:27;;;;;;;38.90;25.30;;;;;;;;;;108278;1247;22532;-81
2023/04/09 12:12:54;;;;;;;47.60;28.80;;;;;;;;;;108378;1247;24177;-81
2023/04/09 12:15:21;;;;;;;39.90;26.70;;;;;;;;;;108345;1247;22518;-79
2023/04/09 12:17:52;;;;;;;37.70;25.80;;;;;;;;;;108323;1247;22523;-81
2023/04/09 12:20:35;;;;;;;37.10;25.30;;;;;;;;;;108280;1247;22570;-79
2023/04/09 12:23:02;;;;;;;41.60;26.10;;;;;;;;;;108318;1247;24206;-81
2023/04/09 12:25:29;;;;;;;30.10;21.20;;;;;;;;;;108439;1247;22642;-79
2023/04/09 12:27:56;;;;;;;49.90;34.50;;;;;;;;;;108295;1247;23343;-81
2023/04/09 12:30:23;;;;;;;81.30;45.40;;;;;;;;;;108204;1248;23321;-79
2023/04/09 12:32:50;;;;;;;563.10;335.10;;;;;;;;;;108104;1250;22527;-81
2023/04/09 12:35:16;;;;;;;82.00;49.30;;;;;;;;;;108051;1252;22532;-81
2023/04/09 12:37:43;;;;;;;863.50;533.80;;;;;;;;;;108231;1250;22568;-79
2023/04/09 12:40:12;;;;;;;106.90;65.50;;;;;;;;;;108144;1250;25256;-81
2023/04/09 12:42:40;;;;;;;66.80;41.90;;;;;;;;;;108173;1248;22530;-79
2023/04/09 12:45:07;;;;;;;133.80;78.90;;;;;;;;;;108344;1250;22567;-81
2023/04/09 12:47:33;;;;;;;44.50;32.40;;;;;;;;;;108167;1250;25370;-79
2023/04/09 12:50:00;;;;;;;86.60;56.20;;;;;;;;;;108214;1249;22521;-80
2023/04/09 12:52:26;;;;;;;156.20;110.50;;;;;;;;;;108131;1250;22532;-79
2023/04/09 12:54:52;;;;;;;28.80;20.20;;;;;;;;;;108103;1252;22535;-80
2023/04/09 12:57:19;;;;;;;50.60;36.80;;;;;;;;;;108090;1250;22568;-81
2023/04/09 12:59:45;;;;;;;25.10;18.80;;;;;;;;;;108034;1249;22565;-79
2023/04/09 13:02:12;;;;;;;22.80;16.60;;;;;;;;;;108095;1250;22528;-80
2023/04/09 13:04:38;;;;;;;22.30;16.70;;;;;;;;;;108138;1250;22525;-80
2023/04/09 13:07:04;;;;;;;25.20;17.10;;;;;;;;;;108142;1250;22542;-77
2023/04/09 13:09:31;;;;;;;24.10;18.30;;;;;;;;;;107621;1249;22612;-79
2023/04/09 13:11:57;;;;;;;22.40;17.80;;;;;;;;;;107579;1248;25550;-79
2023/04/09 13:14:24;;;;;;;26.90;19.70;;;;;;;;;;107573;1250;25428;-79
2023/04/09 13:16:51;;;;;;;23.10;16.60;;;;;;;;;;107601;1249;26353;-79
2023/04/09 13:19:17;;;;;;;23.00;17.10;;;;;;;;;;107570;1252;22527;-78
2023/04/09 13:21:44;;;;;;;22.70;16.50;;;;;;;;;;107597;1252;22518;-79
2023/04/09 13:24:10;;;;;;;23.30;16.00;;;;;;;;;;107611;1249;24190;-81
2023/04/09 13:26:37;;;;;;;25.60;17.90;;;;;;;;;;107589;1251;22529;-79
2023/04/09 13:29:03;;;;;;;28.90;20.00;;;;;;;;;;107544;1249;25868;-80
2023/04/09 13:31:30;;;;;;;23.30;16.50;;;;;;;;;;107548;1250;22524;-80
2023/04/09 13:33:56;;;;;;;37.60;21.70;;;;;;;;;;107598;1252;22545;-79
2023/04/09 13:36:23;;;;;;;31.10;18.70;;;;;;;;;;107565;1250;22606;-78
2023/04/09 13:38:49;;;;;;;322.60;132.50;;;;;;;;;;108085;1250;25181;-79
2023/04/09 13:41:16;;;;;;;99.60;49.20;;;;;;;;;;108066;1250;25378;-79
2023/04/09 13:43:43;;;;;;;37.50;24.00;;;;;;;;;;108079;1250;22515;-79
2023/04/09 13:46:10;;;;;;;27.40;18.60;;;;;;;;;;108115;1249;22657;-80
2023/04/09 13:48:36;;;;;;;28.80;19.70;;;;;;;;;;107594;1249;22545;-80
2023/04/09 13:51:03;;;;;;;25.30;18.20;;;;;;;;;;107582;1250;22524;-78
2023/04/09 13:53:30;;;;;;;26.30;19.20;;;;;;;;;;108095;1250;23276;-79
2023/04/09 13:55:56;;;;;;;22.00;15.20;;;;;;;;;;108080;1250;22570;-80
2023/04/09 13:58:23;;;;;;;23.70;16.50;;;;;;;;;;107934;1249;164339;-77
2023/04/09 14:00:50;;;;;;;19.70;15.10;;;;;;;;;;107598;1247;24503;-79
2023/04/09 14:03:16;;;;;;;21.60;15.10;;;;;;;;;;107793;1247;22566;-79